sensor_id;sensor_type;location;lat;lon;timestamp;pressure;altitude;pressure_sealevel;temperature;humidity
72570;BME280;60594;50.204;8.844;2023-05-21T00:00:14;99832.34;;;14.43;89.54
72570;BME280;60594;50.204;8.844;2023-05-21T00:03:01;99828.59;;;14.36;89.43
72570;BME280;60594;50.204;8.844;2023-05-21T00:05:29;99836.44;;;14.30;90.28
72570;BME280;60594;50.204;8.844;2023-05-21T00:07:57;99838.09;;;14.31;89.87
72570;BME280;60594;50.204;8.844;2023-05-21T00:10:23;99829.13;;;14.22;90.78
72570;BME280;60594;50.204;8.844;2023-05-21T00:12:50;99826.16;;;14.25;90.54
72570;BME280;60594;50.204;8.844;2023-05-21T00:15:16;99825.72;;;14.20;90.98
72570;BME280;60594;50.204;8.844;2023-05-21T00:17:43;99818.63;;;14.29;90.24
72570;BME280;60594;50.204;8.844;2023-05-21T00:20:11;99819.78;;;14.26;90.34
72570;BME280;60594;50.204;8.844;2023-05-21T00:22:38;99829.13;;;14.22;90.54
72570;BME280;60594;50.204;8.844;2023-05-21T00:25:07;99820.56;;;14.19;90.91
72570;BME280;60594;50.204;8.844;2023-05-21T00:27:36;99821.00;;;14.14;91.45
72570;BME280;60594;50.204;8.844;2023-05-21T00:30:03;99818.47;;;14.13;91.61
72570;BME280;60594;50.204;8.844;2023-05-21T00:32:31;99817.03;;;14.18;91.12
72570;BME280;60594;50.204;8.844;2023-05-21T00:35:01;99812.31;;;14.20;90.69
72570;BME280;60594;50.204;8.844;2023-05-21T00:37:29;99818.03;;;14.17;90.81
72570;BME280;60594;50.204;8.844;2023-05-21T00:40:00;99814.50;;;14.17;91.08
72570;BME280;60594;50.204;8.844;2023-05-21T00:42:27;99804.94;;;14.14;91.24
72570;BME280;60594;50.204;8.844;2023-05-21T00:44:56;99803.06;;;14.15;91.10
72570;BME280;60594;50.204;8.844;2023-05-21T00:47:23;99794.22;;;14.14;91.19
72570;BME280;60594;50.204;8.844;2023-05-21T00:49:50;99795.88;;;14.15;91.47
72570;BME280;60594;50.204;8.844;2023-05-21T00:52:19;99797.09;;;14.21;90.80
72570;BME280;60594;50.204;8.844;2023-05-21T00:54:51;99789.59;;;14.07;91.39
72570;BME280;60594;50.204;8.844;2023-05-21T00:57:19;99791.31;;;14.08;91.66
72570;BME280;60594;50.204;8.844;2023-05-21T00:59:47;99789.25;;;14.02;92.19
72570;BME280;60594;50.204;8.844;2023-05-21T01:02:16;99787.00;;;13.97;92.33
72570;BME280;60594;50.204;8.844;2023-05-21T01:04:46;99783.28;;;14.08;91.60
72570;BME280;60594;50.204;8.844;2023-05-21T01:07:13;99771.16;;;14.04;91.80
72570;BME280;60594;50.204;8.844;2023-05-21T01:09:40;99782.50;;;13.98;92.46
72570;BME280;60594;50.204;8.844;2023-05-21T01:12:08;99777.38;;;14.04;91.90
72570;BME280;60594;50.204;8.844;2023-05-21T01:14:36;99776.00;;;14.00;92.79
72570;BME280;60594;50.204;8.844;2023-05-21T01:17:06;99773.91;;;13.94;92.92
72570;BME280;60594;50.204;8.844;2023-05-21T01:19:35;99771.66;;;13.99;92.18
72570;BME280;60594;50.204;8.844;2023-05-21T01:22:06;99771.66;;;13.99;92.48
72570;BME280;60594;50.204;8.844;2023-05-21T01:24:34;99773.00;;;14.03;92.80
72570;BME280;60594;50.204;8.844;2023-05-21T01:27:02;99761.59;;;14.01;91.99
72570;BME280;60594;50.204;8.844;2023-05-21T01:29:28;99763.53;;;13.91;92.99
72570;BME280;60594;50.204;8.844;2023-05-21T01:32:09;99753.94;;;13.89;93.22
72570;BME280;60594;50.204;8.844;2023-05-21T01:37:55;99756.50;;;13.73;94.08
72570;BME280;60594;50.204;8.844;2023-05-21T01:40:35;99750.38;;;13.80;93.94
72570;BME280;60594;50.204;8.844;2023-05-21T01:43:05;99762.63;;;13.83;93.45
72570;BME280;60594;50.204;8.844;2023-05-21T01:45:35;99751.44;;;13.69;94.68
72570;BME280;60594;50.204;8.844;2023-05-21T01:48:06;99755.81;;;13.71;94.92
72570;BME280;60594;50.204;8.844;2023-05-21T01:50:34;99745.03;;;13.80;93.76
72570;BME280;60594;50.204;8.844;2023-05-21T01:53:01;99751.84;;;13.75;94.35
72570;BME280;60594;50.204;8.844;2023-05-21T01:55:29;99755.19;;;13.77;94.34
72570;BME280;60594;50.204;8.844;2023-05-21T01:57:57;99748.69;;;13.79;93.81
72570;BME280;60594;50.204;8.844;2023-05-21T02:00:25;99749.69;;;13.78;94.01
72570;BME280;60594;50.204;8.844;2023-05-21T02:02:57;99755.81;;;13.71;94.70
72570;BME280;60594;50.204;8.844;2023-05-21T02:05:24;99748.47;;;13.73;94.94
72570;BME280;60594;50.204;8.844;2023-05-21T02:07:51;99749.22;;;13.83;94.16
72570;BME280;60594;50.204;8.844;2023-05-21T02:10:18;99749.31;;;13.73;94.55
72570;BME280;60594;50.204;8.844;2023-05-21T02:12:45;99749.53;;;13.80;94.53
72570;BME280;60594;50.204;8.844;2023-05-21T02:15:12;99757.56;;;13.80;94.48
72570;BME280;60594;50.204;8.844;2023-05-21T02:17:44;99747.38;;;13.83;94.26
72570;BME280;60594;50.204;8.844;2023-05-21T02:20:12;99742.81;;;13.76;94.45
72570;BME280;60594;50.204;8.844;2023-05-21T02:22:44;99745.63;;;13.74;94.81
72570;BME280;60594;50.204;8.844;2023-05-21T02:25:13;99750.53;;;13.61;95.66
72570;BME280;60594;50.204;8.844;2023-05-21T02:27:41;99739.75;;;13.71;95.05
72570;BME280;60594;50.204;8.844;2023-05-21T02:30:10;99742.34;;;13.62;95.70
72570;BME280;60594;50.204;8.844;2023-05-21T02:32:56;99748.41;;;13.64;95.79
72570;BME280;60594;50.204;8.844;2023-05-21T02:35:23;99734.16;;;13.64;95.37
72570;BME280;60594;50.204;8.844;2023-05-21T02:37:51;99740.22;;;13.66;95.53
72570;BME280;60594;50.204;8.844;2023-05-21T02:40:17;99725.16;;;13.65;95.42
72570;BME280;60594;50.204;8.844;2023-05-21T02:42:45;99722.13;;;13.68;95.79
72570;BME280;60594;50.204;8.844;2023-05-21T02:45:18;99727.63;;;13.66;95.07
72570;BME280;60594;50.204;8.844;2023-05-21T02:47:44;99733.34;;;13.63;96.30
72570;BME280;60594;50.204;8.844;2023-05-21T02:50:12;99740.06;;;13.68;95.56
72570;BME280;60594;50.204;8.844;2023-05-21T02:52:45;99732.09;;;13.58;96.28
72570;BME280;60594;50.204;8.844;2023-05-21T02:55:11;99742.34;;;13.62;95.63
72570;BME280;60594;50.204;8.844;2023-05-21T02:57:39;99729.09;;;13.61;95.57
72570;BME280;60594;50.204;8.844;2023-05-21T03:00:06;99735.47;;;13.60;95.99
72570;BME280;60594;50.204;8.844;2023-05-21T03:02:35;99730.09;;;13.60;95.66
72570;BME280;60594;50.204;8.844;2023-05-21T03:05:01;99732.84;;;13.68;95.64
72570;BME280;60594;50.204;8.844;2023-05-21T03:07:28;99729.03;;;13.71;94.98
72570;BME280;60594;50.204;8.844;2023-05-21T03:09:54;99734.69;;;13.68;95.23
72570;BME280;60594;50.204;8.844;2023-05-21T03:12:21;99737.31;;;13.59;95.81
72570;BME280;60594;50.204;8.844;2023-05-21T03:14:48;99731.25;;;13.57;96.52
72570;BME280;60594;50.204;8.844;2023-05-21T03:17:16;99729.28;;;13.59;95.70
72570;BME280;60594;50.204;8.844;2023-05-21T03:19:44;99735.09;;;13.55;96.10
72570;BME280;60594;50.204;8.844;2023-05-21T03:22:11;99732.94;;;13.58;96.27
72570;BME280;60594;50.204;8.844;2023-05-21T03:24:38;99731.56;;;13.54;96.34
72570;BME280;60594;50.204;8.844;2023-05-21T03:27:06;99745.56;;;13.66;96.04
72570;BME280;60594;50.204;8.844;2023-05-21T03:29:33;99726.34;;;13.53;96.59
72570;BME280;60594;50.204;8.844;2023-05-21T03:32:02;99731.84;;;13.51;96.84
72570;BME280;60594;50.204;8.844;2023-05-21T03:34:29;99723.94;;;13.59;95.71
72570;BME280;60594;50.204;8.844;2023-05-21T03:36:56;99736.69;;;13.65;95.44
72570;BME280;60594;50.204;8.844;2023-05-21T03:39:23;99728.88;;;13.54;96.50
72570;BME280;60594;50.204;8.844;2023-05-21T03:41:51;99724.59;;;13.44;97.22
72570;BME280;60594;50.204;8.844;2023-05-21T03:44:25;99717.25;;;13.46;97.21
72570;BME280;60594;50.204;8.844;2023-05-21T03:47:11;99732.00;;;13.50;97.39
72570;BME280;60594;50.204;8.844;2023-05-21T03:49:38;99725.91;;;13.57;96.28
72570;BME280;60594;50.204;8.844;2023-05-21T03:52:05;99731.69;;;13.53;96.95
72570;BME280;60594;50.204;8.844;2023-05-21T03:54:31;99722.22;;;13.58;95.99
72570;BME280;60594;50.204;8.844;2023-05-21T03:57:02;99718.00;;;13.56;96.98
72570;BME280;60594;50.204;8.844;2023-05-21T03:59:29;99725.38;;;13.54;97.43
72570;BME280;60594;50.204;8.844;2023-05-21T04:01:56;99724.75;;;13.60;96.78
72570;BME280;60594;50.204;8.844;2023-05-21T04:04:22;99725.38;;;13.54;97.43
72570;BME280;60594;50.204;8.844;2023-05-21T04:06:52;99730.09;;;13.60;96.40
72570;BME280;60594;50.204;8.844;2023-05-21T04:09:21;99729.19;;;13.51;97.34
72570;BME280;60594;50.204;8.844;2023-05-21T04:11:48;99717.41;;;13.44;97.94
72570;BME280;60594;50.204;8.844;2023-05-21T04:14:15;99730.31;;;13.49;97.52
72570;BME280;60594;50.204;8.844;2023-05-21T04:16:42;99728.50;;;13.49;97.75
72570;BME280;60594;50.204;8.844;2023-05-21T04:19:09;99730.19;;;13.50;97.85
72570;BME280;60594;50.204;8.844;2023-05-21T04:21:36;99725.81;;;13.49;97.68
72570;BME280;60594;50.204;8.844;2023-05-21T04:24:03;99730.03;;;13.52;98.20
72570;BME280;60594;50.204;8.844;2023-05-21T04:26:41;99726.28;;;13.62;96.67
72570;BME280;60594;50.204;8.844;2023-05-21T04:29:09;99731.41;;;13.56;97.34
72570;BME280;60594;50.204;8.844;2023-05-21T04:31:36;99730.09;;;13.60;97.70
72570;BME280;60594;50.204;8.844;2023-05-21T04:34:03;99727.19;;;13.71;96.50
72570;BME280;60594;50.204;8.844;2023-05-21T04:36:31;99740.22;;;13.66;96.95
72570;BME280;60594;50.204;8.844;2023-05-21T04:38:59;99732.41;;;13.73;96.41
72570;BME280;60594;50.204;8.844;2023-05-21T04:41:26;99732.19;;;13.66;96.78
72570;BME280;60594;50.204;8.844;2023-05-21T04:43:53;99737.44;;;13.76;96.59
72570;BME280;60594;50.204;8.844;2023-05-21T04:46:21;99740.59;;;13.71;97.03
72570;BME280;60594;50.204;8.844;2023-05-21T04:48:52;99742.59;;;13.69;97.20
72570;BME280;60594;50.204;8.844;2023-05-21T04:51:21;99744.34;;;13.60;97.61
72570;BME280;60594;50.204;8.844;2023-05-21T04:53:48;99742.75;;;13.68;97.25
72570;BME280;60594;50.204;8.844;2023-05-21T04:56:15;99740.22;;;13.66;97.90
72570;BME280;60594;50.204;8.844;2023-05-21T04:58:46;99744.94;;;13.72;97.32
72570;BME280;60594;50.204;8.844;2023-05-21T05:01:14;99743.25;;;13.71;97.54
72570;BME280;60594;50.204;8.844;2023-05-21T05:03:41;99735.53;;;13.68;97.57
72570;BME280;60594;50.204;8.844;2023-05-21T05:06:07;99741.44;;;13.72;96.96
72570;BME280;60594;50.204;8.844;2023-05-21T05:08:34;99739.81;;;13.79;97.09
72570;BME280;60594;50.204;8.844;2023-05-21T05:11:01;99741.03;;;13.84;96.53
72570;BME280;60594;50.204;8.844;2023-05-21T05:13:28;99739.66;;;13.80;97.18
72570;BME280;60594;50.204;8.844;2023-05-21T05:15:55;99739.34;;;13.83;97.05
72570;BME280;60594;50.204;8.844;2023-05-21T05:18:22;99748.44;;;13.90;97.19
72570;BME280;60594;50.204;8.844;2023-05-21T05:20:50;99734.06;;;13.91;97.07
72570;BME280;60594;50.204;8.844;2023-05-21T05:23:16;99741.16;;;14.00;96.08
72570;BME280;60594;50.204;8.844;2023-05-21T05:25:43;99731.75;;;13.96;96.94
72570;BME280;60594;50.204;8.844;2023-05-21T05:28:13;99745.22;;;14.04;96.72
72570;BME280;60594;50.204;8.844;2023-05-21T05:30:40;99735.84;;;14.08;95.85
72570;BME280;60594;50.204;8.844;2023-05-21T05:33:20;99735.03;;;14.08;96.34
72570;BME280;60594;50.204;8.844;2023-05-21T05:35:46;99734.69;;;14.11;96.21
72570;BME280;60594;50.204;8.844;2023-05-21T05:38:13;99736.63;;;14.18;95.59
72570;BME280;60594;50.204;8.844;2023-05-21T05:40:39;99737.28;;;14.20;96.12
72570;BME280;60594;50.204;8.844;2023-05-21T05:43:06;99741.03;;;14.27;95.33
72570;BME280;60594;50.204;8.844;2023-05-21T05:45:33;99737.00;;;14.23;96.04
72570;BME280;60594;50.204;8.844;2023-05-21T05:48:00;99739.22;;;14.28;95.86
72570;BME280;60594;50.204;8.844;2023-05-21T05:50:27;99734.91;;;14.35;95.19
72570;BME280;60594;50.204;8.844;2023-05-21T05:52:53;99730.75;;;14.40;94.65
72570;BME280;60594;50.204;8.844;2023-05-21T05:55:22;99734.09;;;14.42;95.35
72570;BME280;60594;50.204;8.844;2023-05-21T05:57:50;99744.66;;;14.44;95.36
72570;BME280;60594;50.204;8.844;2023-05-21T06:00:17;99729.94;;;14.48;95.31
72570;BME280;60594;50.204;8.844;2023-05-21T06:02:47;99747.63;;;14.58;94.60
72570;BME280;60594;50.204;8.844;2023-05-21T06:05:14;99731.84;;;14.55;95.07
72570;BME280;60594;50.204;8.844;2023-05-21T06:07:41;99732.03;;;14.62;94.79
72570;BME280;60594;50.204;8.844;2023-05-21T06:10:08;99728.56;;;14.69;94.51
72570;BME280;60594;50.204;8.844;2023-05-21T06:12:35;99732.94;;;14.70;94.44
72570;BME280;60594;50.204;8.844;2023-05-21T06:15:03;99733.44;;;14.74;94.82
72570;BME280;60594;50.204;8.844;2023-05-21T06:17:32;99730.94;;;14.72;95.05
72570;BME280;60594;50.204;8.844;2023-05-21T06:20:00;99733.28;;;14.75;95.88
72570;BME280;60594;50.204;8.844;2023-05-21T06:22:27;99737.53;;;14.86;95.09
72570;BME280;60594;50.204;8.844;2023-05-21T06:24:54;99742.94;;;14.94;93.89
72570;BME280;60594;50.204;8.844;2023-05-21T06:27:21;99739.94;;;14.97;94.05
72570;BME280;60594;50.204;8.844;2023-05-21T06:29:49;99740.59;;;14.99;94.21
72570;BME280;60594;50.204;8.844;2023-05-21T06:32:15;99741.63;;;15.06;94.07
72570;BME280;60594;50.204;8.844;2023-05-21T06:34:42;99739.47;;;15.09;94.01
72570;BME280;60594;50.204;8.844;2023-05-21T06:37:08;99728.59;;;15.11;93.82
72570;BME280;60594;50.204;8.844;2023-05-21T06:39:35;99728.06;;;15.15;94.02
72570;BME280;60594;50.204;8.844;2023-05-21T06:42:02;99739.03;;;15.22;93.36
72570;BME280;60594;50.204;8.844;2023-05-21T06:44:47;99732.31;;;15.26;93.00
72570;BME280;60594;50.204;8.844;2023-05-21T06:47:18;99735.19;;;15.32;93.43
72570;BME280;60594;50.204;8.844;2023-05-21T06:49:45;99736.88;;;15.41;92.41
72570;BME280;60594;50.204;8.844;2023-05-21T06:52:13;99744.47;;;15.46;92.17
72570;BME280;60594;50.204;8.844;2023-05-21T06:54:40;99734.56;;;15.46;92.01
72570;BME280;60594;50.204;8.844;2023-05-21T06:57:07;99733.88;;;15.52;91.47
72570;BME280;60594;50.204;8.844;2023-05-21T06:59:34;99734.25;;;15.57;91.15
72570;BME280;60594;50.204;8.844;2023-05-21T07:02:01;99734.44;;;15.64;91.31
72570;BME280;60594;50.204;8.844;2023-05-21T07:04:29;99733.78;;;15.70;90.95
72570;BME280;60594;50.204;8.844;2023-05-21T07:06:55;99731.91;;;15.78;90.03
72570;BME280;60594;50.204;8.844;2023-05-21T07:09:26;99731.94;;;15.86;91.60
72570;BME280;60594;50.204;8.844;2023-05-21T07:11:53;99738.81;;;15.97;90.58
72570;BME280;60594;50.204;8.844;2023-05-21T07:14:24;99744.84;;;16.15;90.63
72570;BME280;60594;50.204;8.844;2023-05-21T07:16:51;99734.91;;;16.31;88.34
72570;BME280;60594;50.204;8.844;2023-05-21T07:19:19;99731.19;;;16.40;89.39
72570;BME280;60594;50.204;8.844;2023-05-21T07:21:45;99733.38;;;16.53;88.93
72570;BME280;60594;50.204;8.844;2023-05-21T07:24:21;99731.47;;;16.69;87.42
72570;BME280;60594;50.204;8.844;2023-05-21T07:26:47;99733.47;;;16.83;87.81
72570;BME280;60594;50.204;8.844;2023-05-21T07:29:14;99735.44;;;16.89;88.69
72570;BME280;60594;50.204;8.844;2023-05-21T07:31:41;99729.31;;;17.04;86.91
72570;BME280;60594;50.204;8.844;2023-05-21T07:34:08;99721.84;;;17.22;85.13
72570;BME280;60594;50.204;8.844;2023-05-21T07:36:37;99725.03;;;17.25;84.10
72570;BME280;60594;50.204;8.844;2023-05-21T07:39:04;99725.63;;;17.35;84.01
72570;BME280;60594;50.204;8.844;2023-05-21T07:41:31;99718.69;;;17.41;84.18
72570;BME280;60594;50.204;8.844;2023-05-21T07:44:00;99720.19;;;17.51;83.77
72570;BME280;60594;50.204;8.844;2023-05-21T07:46:29;99715.88;;;17.65;83.01
72570;BME280;60594;50.204;8.844;2023-05-21T07:48:57;99713.56;;;17.76;81.57
72570;BME280;60594;50.204;8.844;2023-05-21T07:51:24;99721.56;;;17.70;83.87
72570;BME280;60594;50.204;8.844;2023-05-21T07:53:52;99717.28;;;17.75;80.90
72570;BME280;60594;50.204;8.844;2023-05-21T07:56:22;99710.34;;;17.81;82.06
72570;BME280;60594;50.204;8.844;2023-05-21T07:58:49;99718.38;;;17.89;82.17
72570;BME280;60594;50.204;8.844;2023-05-21T08:01:15;99717.66;;;17.95;83.42
72570;BME280;60594;50.204;8.844;2023-05-21T08:03:42;99716.38;;;18.05;80.86
72570;BME280;60594;50.204;8.844;2023-05-21T08:06:09;99712.84;;;18.05;81.41
72570;BME280;60594;50.204;8.844;2023-05-21T08:08:36;99717.63;;;18.17;82.48
72570;BME280;60594;50.204;8.844;2023-05-21T08:11:03;99715.31;;;18.29;81.94
72570;BME280;60594;50.204;8.844;2023-05-21T08:13:30;99718.25;;;18.42;80.19
72570;BME280;60594;50.204;8.844;2023-05-21T08:15:59;99710.91;;;18.50;80.14
72570;BME280;60594;50.204;8.844;2023-05-21T08:18:27;99711.00;;;18.57;78.83
72570;BME280;60594;50.204;8.844;2023-05-21T08:20:56;99714.16;;;18.60;79.67
72570;BME280;60594;50.204;8.844;2023-05-21T08:23:25;99715.28;;;18.66;77.71
72570;BME280;60594;50.204;8.844;2023-05-21T08:25:54;99707.84;;;18.68;79.11
72570;BME280;60594;50.204;8.844;2023-05-21T08:28:21;99721.59;;;18.73;78.75
72570;BME280;60594;50.204;8.844;2023-05-21T08:30:48;99711.09;;;18.78;78.34
72570;BME280;60594;50.204;8.844;2023-05-21T08:33:17;99716.59;;;18.84;79.37
72570;BME280;60594;50.204;8.844;2023-05-21T08:35:44;99713.69;;;18.86;79.72
72570;BME280;60594;50.204;8.844;2023-05-21T08:38:27;99709.97;;;18.87;81.08
72570;BME280;60594;50.204;8.844;2023-05-21T08:41:15;99712.84;;;19.00;77.88
72570;BME280;60594;50.204;8.844;2023-05-21T08:43:44;99706.13;;;19.10;78.34
72570;BME280;60594;50.204;8.844;2023-05-21T08:46:12;99706.38;;;19.15;79.15
72570;BME280;60594;50.204;8.844;2023-05-21T08:48:41;99707.41;;;19.29;77.86
72570;BME280;60594;50.204;8.844;2023-05-21T08:51:08;99705.50;;;19.44;79.78
72570;BME280;60594;50.204;8.844;2023-05-21T08:53:42;99704.56;;;19.72;79.40
72570;BME280;60594;50.204;8.844;2023-05-21T08:56:12;99701.19;;;19.91;77.84
72570;BME280;60594;50.204;8.844;2023-05-21T08:58:53;99705.78;;;20.12;77.48
72570;BME280;60594;50.204;8.844;2023-05-21T09:01:24;99701.78;;;20.29;74.91
72570;BME280;60594;50.204;8.844;2023-05-21T09:04:00;99698.09;;;20.43;73.92
72570;BME280;60594;50.204;8.844;2023-05-21T09:06:27;99699.19;;;20.49;76.13
72570;BME280;60594;50.204;8.844;2023-05-21T09:09:03;99700.44;;;20.53;73.85
72570;BME280;60594;50.204;8.844;2023-05-21T09:11:40;99699.44;;;20.54;75.77
72570;BME280;60594;50.204;8.844;2023-05-21T09:14:12;99704.19;;;20.52;75.06
72570;BME280;60594;50.204;8.844;2023-05-21T09:17:12;99698.59;;;20.53;72.77
72570;BME280;60594;50.204;8.844;2023-05-21T09:20:22;99699.00;;;20.57;74.43
72570;BME280;60594;50.204;8.844;2023-05-21T09:22:52;99697.06;;;20.72;74.83
72570;BME280;60594;50.204;8.844;2023-05-21T09:25:23;99707.44;;;21.02;73.06
72570;BME280;60594;50.204;8.844;2023-05-21T09:27:50;99692.97;;;21.36;74.31
72570;BME280;60594;50.204;8.844;2023-05-21T09:30:18;99689.47;;;21.55;70.67
72570;BME280;60594;50.204;8.844;2023-05-21T09:32:51;99683.06;;;21.75;69.77
72570;BME280;60594;50.204;8.844;2023-05-21T09:35:18;99685.19;;;22.12;70.76
72570;BME280;60594;50.204;8.844;2023-05-21T09:37:51;99685.16;;;22.45;69.41
72570;BME280;60594;50.204;8.844;2023-05-21T09:40:21;99683.03;;;22.73;68.51
72570;BME280;60594;50.204;8.844;2023-05-21T09:42:50;99684.66;;;22.87;68.19
72570;BME280;60594;50.204;8.844;2023-05-21T09:45:23;99678.28;;;23.13;67.38
72570;BME280;60594;50.204;8.844;2023-05-21T09:47:52;99676.78;;;23.30;65.22
72570;BME280;60594;50.204;8.844;2023-05-21T09:52:48;99682.66;;;23.64;64.36
72570;BME280;60594;50.204;8.844;2023-05-21T09:55:21;99690.84;;;23.89;64.26
72570;BME280;60594;50.204;8.844;2023-05-21T09:57:50;99679.19;;;24.13;64.23
72570;BME280;60594;50.204;8.844;2023-05-21T10:00:18;99677.84;;;24.22;62.93
72570;BME280;60594;50.204;8.844;2023-05-21T10:02:46;99682.16;;;24.29;60.81
72570;BME280;60594;50.204;8.844;2023-05-21T10:05:14;99681.91;;;24.37;59.94
72570;BME280;60594;50.204;8.844;2023-05-21T10:07:49;99672.13;;;24.48;57.70
72570;BME280;60594;50.204;8.844;2023-05-21T10:10:20;99670.03;;;24.50;58.05
72570;BME280;60594;50.204;8.844;2023-05-21T10:12:54;99673.25;;;24.65;59.25
72570;BME280;60594;50.204;8.844;2023-05-21T10:15:23;99672.75;;;24.74;58.01
72570;BME280;60594;50.204;8.844;2023-05-21T10:17:54;99669.84;;;24.87;58.69
72570;BME280;60594;50.204;8.844;2023-05-21T10:20:21;99664.06;;;24.95;58.50
72570;BME280;60594;50.204;8.844;2023-05-21T10:22:49;99667.56;;;25.02;59.63
72570;BME280;60594;50.204;8.844;2023-05-21T10:25:16;99659.88;;;24.81;59.25
72570;BME280;60594;50.204;8.844;2023-05-21T10:27:43;99659.34;;;24.73;59.90
72570;BME280;60594;50.204;8.844;2023-05-21T10:30:11;99656.69;;;24.66;54.93
72570;BME280;60594;50.204;8.844;2023-05-21T10:32:38;99655.03;;;24.59;57.69
72570;BME280;60594;50.204;8.844;2023-05-21T10:35:08;99661.88;;;24.50;56.31
72570;BME280;60594;50.204;8.844;2023-05-21T10:37:35;99653.13;;;24.41;55.88
72570;BME280;60594;50.204;8.844;2023-05-21T10:40:02;99660.75;;;24.33;55.32
72570;BME280;60594;50.204;8.844;2023-05-21T10:45:20;99651.66;;;24.21;54.37
72570;BME280;60594;50.204;8.844;2023-05-21T10:48:23;99650.16;;;24.25;56.75
72570;BME280;60594;50.204;8.844;2023-05-21T10:51:17;99651.94;;;24.37;55.33
72570;BME280;60594;50.204;8.844;2023-05-21T10:53:59;99647.31;;;24.56;55.83
72570;BME280;60594;50.204;8.844;2023-05-21T10:56:53;99644.41;;;24.75;55.65
72570;BME280;60594;50.204;8.844;2023-05-21T10:59:50;99641.81;;;24.98;54.25
72570;BME280;60594;50.204;8.844;2023-05-21T11:02:19;99636.72;;;25.20;52.27
72570;BME280;60594;50.204;8.844;2023-05-21T11:04:47;99643.66;;;25.34;54.54
72570;BME280;60594;50.204;8.844;2023-05-21T11:07:21;99634.66;;;25.33;51.68
72570;BME280;60594;50.204;8.844;2023-05-21T11:09:51;99632.56;;;25.47;51.43
72570;BME280;60594;50.204;8.844;2023-05-21T11:12:19;99631.28;;;25.49;52.40
72570;BME280;60594;50.204;8.844;2023-05-21T11:14:57;99626.44;;;25.51;49.16
72570;BME280;60594;50.204;8.844;2023-05-21T11:17:40;99632.53;;;25.17;47.61
72570;BME280;60594;50.204;8.844;2023-05-21T11:20:11;99629.34;;;25.20;51.46
72570;BME280;60594;50.204;8.844;2023-05-21T11:22:44;99628.44;;;25.26;52.72
72570;BME280;60594;50.204;8.844;2023-05-21T11:25:11;99632.81;;;24.80;48.66
72570;BME280;60594;50.204;8.844;2023-05-21T11:27:39;99636.44;;;24.74;53.29
72570;BME280;60594;50.204;8.844;2023-05-21T11:30:08;99628.19;;;24.80;52.46
72570;BME280;60594;50.204;8.844;2023-05-21T11:32:37;99632.75;;;24.68;50.79
72570;BME280;60594;50.204;8.844;2023-05-21T11:35:06;99629.13;;;24.74;52.04
72570;BME280;60594;50.204;8.844;2023-05-21T11:37:34;99621.47;;;24.83;56.69
72570;BME280;60594;50.204;8.844;2023-05-21T11:40:22;99615.69;;;24.91;54.36
72570;BME280;60594;50.204;8.844;2023-05-21T11:42:52;99614.09;;;25.01;52.69
72570;BME280;60594;50.204;8.844;2023-05-21T11:45:22;99619.44;;;25.08;53.88
72570;BME280;60594;50.204;8.844;2023-05-21T11:47:50;99614.28;;;25.18;54.31
72570;BME280;60594;50.204;8.844;2023-05-21T11:50:19;99611.78;;;25.16;52.64
72570;BME280;60594;50.204;8.844;2023-05-21T11:52:47;99608.38;;;25.21;52.61
72570;BME280;60594;50.204;8.844;2023-05-21T11:55:14;99614.28;;;25.18;52.30
72570;BME280;60594;50.204;8.844;2023-05-21T11:57:42;99622.75;;;25.28;54.26
72570;BME280;60594;50.204;8.844;2023-05-21T12:00:13;99616.56;;;25.50;53.32
72570;BME280;60594;50.204;8.844;2023-05-21T12:02:45;99621.31;;;25.55;53.37
72570;BME280;60594;50.204;8.844;2023-05-21T12:05:12;99614.34;;;25.59;51.34
72570;BME280;60594;50.204;8.844;2023-05-21T12:07:40;99607.63;;;25.84;50.89
72570;BME280;60594;50.204;8.844;2023-05-21T12:10:07;99610.75;;;26.11;51.32
72570;BME280;60594;50.204;8.844;2023-05-21T12:12:34;99607.78;;;26.36;48.08
72570;BME280;60594;50.204;8.844;2023-05-21T12:15:01;99613.72;;;26.44;48.20
72570;BME280;60594;50.204;8.844;2023-05-21T12:17:29;99609.22;;;26.61;47.90
72570;BME280;60594;50.204;8.844;2023-05-21T12:19:56;99600.78;;;26.63;46.69
72570;BME280;60594;50.204;8.844;2023-05-21T12:22:24;99599.19;;;26.78;47.92
72570;BME280;60594;50.204;8.844;2023-05-21T12:24:54;99607.06;;;26.75;47.05
72570;BME280;60594;50.204;8.844;2023-05-21T12:27:24;99609.94;;;26.68;45.00
72570;BME280;60594;50.204;8.844;2023-05-21T12:29:51;99609.56;;;26.42;44.86
72570;BME280;60594;50.204;8.844;2023-05-21T12:32:20;99605.88;;;26.25;45.28
72570;BME280;60594;50.204;8.844;2023-05-21T12:34:50;99611.94;;;26.15;45.90
72570;BME280;60594;50.204;8.844;2023-05-21T12:37:26;99608.78;;;25.77;42.40
72570;BME280;60594;50.204;8.844;2023-05-21T12:39:56;99610.69;;;25.76;45.68
72570;BME280;60594;50.204;8.844;2023-05-21T12:42:25;99612.34;;;25.66;43.39
72570;BME280;60594;50.204;8.844;2023-05-21T12:44:52;99612.00;;;25.74;45.75
72570;BME280;60594;50.204;8.844;2023-05-21T12:47:22;99613.78;;;25.91;47.93
72570;BME280;60594;50.204;8.844;2023-05-21T12:49:52;99615.63;;;26.21;46.92
72570;BME280;60594;50.204;8.844;2023-05-21T12:52:21;99608.97;;;26.51;43.91
72570;BME280;60594;50.204;8.844;2023-05-21T12:54:52;99606.44;;;26.84;45.69
72570;BME280;60594;50.204;8.844;2023-05-21T12:57:21;99602.66;;;27.13;44.35
72570;BME280;60594;50.204;8.844;2023-05-21T12:59:59;99610.53;;;27.38;42.17
72570;BME280;60594;50.204;8.844;2023-05-21T13:02:29;99608.88;;;27.37;40.67
72570;BME280;60594;50.204;8.844;2023-05-21T13:05:00;99611.94;;;27.68;41.70
72570;BME280;60594;50.204;8.844;2023-05-21T13:07:29;99608.06;;;27.97;45.62
72570;BME280;60594;50.204;8.844;2023-05-21T13:09:56;99599.38;;;28.00;43.63
72570;BME280;60594;50.204;8.844;2023-05-21T13:12:27;99606.66;;;28.11;40.05
72570;BME280;60594;50.204;8.844;2023-05-21T13:14:56;99606.66;;;28.11;41.51
72570;BME280;60594;50.204;8.844;2023-05-21T13:17:24;99604.75;;;27.95;42.47
72570;BME280;60594;50.204;8.844;2023-05-21T13:20:10;99607.16;;;27.92;40.69